sensor_id;sensor_type;location;lat;lon;timestamp;P1;durP1;ratioP1;P2;durP2;ratioP2
51332;SDS011;37417;48.118;11.734;2023-10-19T00:00:32;20.08;;;13.30;;
51332;SDS011;37417;48.118;11.734;2023-10-19T00:03:31;22.02;;;14.25;;
51332;SDS011;37417;48.118;11.734;2023-10-19T00:06:16;22.00;;;13.65;;
51332;SDS011;37417;48.118;11.734;2023-10-19T00:09:03;20.45;;;13.82;;
51332;SDS011;37417;48.118;11.734;2023-10-19T00:11:49;22.83;;;13.88;;
51332;SDS011;37417;48.118;11.734;2023-10-19T00:14:37;16.05;;;12.50;;
51332;SDS011;37417;48.118;11.734;2023-10-19T00:17:22;17.45;;;12.20;;
51332;SDS011;37417;48.118;11.734;2023-10-19T00:20:09;18.23;;;12.43;;
51332;SDS011;37417;48.118;11.734;2023-10-19T00:23:13;20.35;;;12.15;;
51332;SDS011;37417;48.118;11.734;2023-10-19T00:26:03;19.13;;;12.57;;
51332;SDS011;37417;48.118;11.734;2023-10-19T00:29:00;16.63;;;12.90;;
51332;SDS011;37417;48.118;11.734;2023-10-19T00:31:59;19.88;;;13.00;;
51332;SDS011;37417;48.118;11.734;2023-10-19T00:34:45;18.77;;;12.93;;
51332;SDS011;37417;48.118;11.734;2023-10-19T00:37:37;25.10;;;13.57;;
51332;SDS011;37417;48.118;11.734;2023-10-19T00:40:27;16.23;;;11.82;;
51332;SDS011;37417;48.118;11.734;2023-10-19T00:43:29;16.08;;;11.70;;
51332;SDS011;37417;48.118;11.734;2023-10-19T00:46:18;21.23;;;12.30;;
51332;SDS011;37417;48.118;11.734;2023-10-19T00:49:04;18.88;;;13.45;;
51332;SDS011;37417;48.118;11.734;2023-10-19T00:51:52;21.45;;;13.77;;
51332;SDS011;37417;48.118;11.734;2023-10-19T00:54:38;17.90;;;12.80;;
51332;SDS011;37417;48.118;11.734;2023-10-19T00:57:36;20.13;;;14.35;;
51332;SDS011;37417;48.118;11.734;2023-10-19T01:00:22;19.35;;;14.10;;
51332;SDS011;37417;48.118;11.734;2023-10-19T01:03:19;21.52;;;13.38;;
51332;SDS011;37417;48.118;11.734;2023-10-19T01:06:05;17.92;;;12.55;;
51332;SDS011;37417;48.118;11.734;2023-10-19T01:08:55;18.52;;;12.95;;
51332;SDS011;37417;48.118;11.734;2023-10-19T01:11:43;17.10;;;12.73;;
51332;SDS011;37417;48.118;11.734;2023-10-19T01:14:35;22.38;;;13.80;;
51332;SDS011;37417;48.118;11.734;2023-10-19T01:17:22;23.48;;;14.95;;
51332;SDS011;37417;48.118;11.734;2023-10-19T01:20:08;23.58;;;14.98;;
51332;SDS011;37417;48.118;11.734;2023-10-19T01:23:07;24.20;;;15.25;;
51332;SDS011;37417;48.118;11.734;2023-10-19T01:25:54;19.55;;;13.60;;
51332;SDS011;37417;48.118;11.734;2023-10-19T01:28:43;20.95;;;14.25;;
51332;SDS011;37417;48.118;11.734;2023-10-19T01:31:29;24.08;;;15.52;;
51332;SDS011;37417;48.118;11.734;2023-10-19T01:34:16;22.20;;;15.15;;
51332;SDS011;37417;48.118;11.734;2023-10-19T01:37:05;20.70;;;13.48;;
51332;SDS011;37417;48.118;11.734;2023-10-19T01:39:51;22.75;;;13.40;;
51332;SDS011;37417;48.118;11.734;2023-10-19T01:42:37;24.88;;;13.07;;
51332;SDS011;37417;48.118;11.734;2023-10-19T01:45:23;18.17;;;12.57;;
51332;SDS011;37417;48.118;11.734;2023-10-19T01:48:08;17.75;;;12.23;;
51332;SDS011;37417;48.118;11.734;2023-10-19T01:50:54;18.63;;;12.90;;
51332;SDS011;37417;48.118;11.734;2023-10-19T01:53:40;21.48;;;13.13;;
51332;SDS011;37417;48.118;11.734;2023-10-19T01:56:29;20.95;;;13.23;;
51332;SDS011;37417;48.118;11.734;2023-10-19T01:59:15;18.20;;;12.55;;
51332;SDS011;37417;48.118;11.734;2023-10-19T02:02:01;22.02;;;12.80;;
51332;SDS011;37417;48.118;11.734;2023-10-19T02:04:47;18.38;;;12.57;;
51332;SDS011;37417;48.118;11.734;2023-10-19T02:07:36;16.50;;;11.70;;
51332;SDS011;37417;48.118;11.734;2023-10-19T02:10:21;16.88;;;12.45;;
51332;SDS011;37417;48.118;11.734;2023-10-19T02:13:08;21.88;;;13.10;;
51332;SDS011;37417;48.118;11.734;2023-10-19T02:15:54;17.42;;;12.75;;
51332;SDS011;37417;48.118;11.734;2023-10-19T02:18:40;17.73;;;12.80;;
51332;SDS011;37417;48.118;11.734;2023-10-19T02:21:25;17.27;;;12.57;;
51332;SDS011;37417;48.118;11.734;2023-10-19T02:24:16;21.00;;;13.23;;
51332;SDS011;37417;48.118;11.734;2023-10-19T02:27:01;23.33;;;13.27;;
51332;SDS011;37417;48.118;11.734;2023-10-19T02:29:47;17.63;;;12.38;;
51332;SDS011;37417;48.118;11.734;2023-10-19T02:32:32;17.42;;;12.00;;
51332;SDS011;37417;48.118;11.734;2023-10-19T02:35:18;19.85;;;12.10;;
51332;SDS011;37417;48.118;11.734;2023-10-19T02:38:04;16.15;;;13.00;;
51332;SDS011;37417;48.118;11.734;2023-10-19T02:40:50;17.08;;;11.48;;
51332;SDS011;37417;48.118;11.734;2023-10-19T02:43:36;14.98;;;10.85;;
51332;SDS011;37417;48.118;11.734;2023-10-19T02:46:22;19.23;;;12.45;;
51332;SDS011;37417;48.118;11.734;2023-10-19T02:49:09;18.38;;;12.18;;
51332;SDS011;37417;48.118;11.734;2023-10-19T02:51:59;17.65;;;11.80;;
51332;SDS011;37417;48.118;11.734;2023-10-19T02:54:49;15.32;;;11.65;;
51332;SDS011;37417;48.118;11.734;2023-10-19T02:57:36;19.45;;;11.50;;
51332;SDS011;37417;48.118;11.734;2023-10-19T03:00:21;14.52;;;11.32;;
51332;SDS011;37417;48.118;11.734;2023-10-19T03:03:07;16.20;;;11.90;;
51332;SDS011;37417;48.118;11.734;2023-10-19T03:05:52;16.38;;;11.27;;
51332;SDS011;37417;48.118;11.734;2023-10-19T03:08:41;15.85;;;11.73;;
51332;SDS011;37417;48.118;11.734;2023-10-19T03:11:27;16.98;;;10.43;;
51332;SDS011;37417;48.118;11.734;2023-10-19T03:14:12;15.20;;;11.05;;
51332;SDS011;37417;48.118;11.734;2023-10-19T03:16:59;14.55;;;10.65;;
51332;SDS011;37417;48.118;11.734;2023-10-19T03:19:45;14.82;;;11.48;;
51332;SDS011;37417;48.118;11.734;2023-10-19T03:22:31;15.10;;;10.93;;
51332;SDS011;37417;48.118;11.734;2023-10-19T03:25:17;17.05;;;11.35;;
51332;SDS011;37417;48.118;11.734;2023-10-19T03:28:22;16.25;;;10.18;;
51332;SDS011;37417;48.118;11.734;2023-10-19T03:31:11;19.73;;;11.50;;
51332;SDS011;37417;48.118;11.734;2023-10-19T03:34:03;14.93;;;9.88;;
51332;SDS011;37417;48.118;11.734;2023-10-19T03:36:51;18.25;;;10.60;;
51332;SDS011;37417;48.118;11.734;2023-10-19T03:39:37;14.25;;;11.13;;
51332;SDS011;37417;48.118;11.734;2023-10-19T03:42:25;17.50;;;11.18;;
51332;SDS011;37417;48.118;11.734;2023-10-19T03:45:11;13.68;;;10.07;;
51332;SDS011;37417;48.118;11.734;2023-10-19T03:48:00;17.48;;;11.63;;
51332;SDS011;37417;48.118;11.734;2023-10-19T03:50:52;19.00;;;10.43;;
51332;SDS011;37417;48.118;11.734;2023-10-19T03:53:40;14.40;;;11.43;;
51332;SDS011;37417;48.118;11.734;2023-10-19T03:56:32;16.42;;;11.85;;
51332;SDS011;37417;48.118;11.734;2023-10-19T03:59:18;14.88;;;10.95;;
51332;SDS011;37417;48.118;11.734;2023-10-19T04:02:06;18.33;;;10.90;;
51332;SDS011;37417;48.118;11.734;2023-10-19T04:05:06;19.50;;;11.40;;
51332;SDS011;37417;48.118;11.734;2023-10-19T04:07:54;13.63;;;10.57;;
51332;SDS011;37417;48.118;11.734;2023-10-19T04:10:40;16.35;;;11.63;;
51332;SDS011;37417;48.118;11.734;2023-10-19T04:13:29;16.67;;;10.32;;
51332;SDS011;37417;48.118;11.734;2023-10-19T04:16:15;14.10;;;9.90;;
51332;SDS011;37417;48.118;11.734;2023-10-19T04:19:00;11.73;;;9.32;;
51332;SDS011;37417;48.118;11.734;2023-10-19T04:21:49;13.38;;;8.98;;
51332;SDS011;37417;48.118;11.734;2023-10-19T04:24:36;11.57;;;8.48;;
51332;SDS011;37417;48.118;11.734;2023-10-19T04:27:21;13.27;;;9.43;;
51332;SDS011;37417;48.118;11.734;2023-10-19T04:30:08;14.02;;;10.07;;
51332;SDS011;37417;48.118;11.734;2023-10-19T04:33:01;15.93;;;9.27;;
51332;SDS011;37417;48.118;11.734;2023-10-19T04:35:47;14.23;;;9.25;;
51332;SDS011;37417;48.118;11.734;2023-10-19T04:38:38;16.30;;;10.15;;
51332;SDS011;37417;48.118;11.734;2023-10-19T04:41:23;15.45;;;9.82;;
51332;SDS011;37417;48.118;11.734;2023-10-19T04:44:09;13.60;;;9.68;;
51332;SDS011;37417;48.118;11.734;2023-10-19T04:46:54;13.90;;;9.52;;
51332;SDS011;37417;48.118;11.734;2023-10-19T04:49:40;16.88;;;9.18;;
51332;SDS011;37417;48.118;11.734;2023-10-19T04:52:25;15.25;;;9.13;;
51332;SDS011;37417;48.118;11.734;2023-10-19T04:55:11;12.15;;;9.40;;
51332;SDS011;37417;48.118;11.734;2023-10-19T04:57:56;12.07;;;9.85;;
51332;SDS011;37417;48.118;11.734;2023-10-19T05:00:42;13.52;;;8.23;;
51332;SDS011;37417;48.118;11.734;2023-10-19T05:03:27;10.85;;;8.27;;
51332;SDS011;37417;48.118;11.734;2023-10-19T05:06:13;12.27;;;8.30;;
51332;SDS011;37417;48.118;11.734;2023-10-19T05:08:59;11.90;;;8.23;;
51332;SDS011;37417;48.118;11.734;2023-10-19T05:11:44;12.32;;;7.07;;
51332;SDS011;37417;48.118;11.734;2023-10-19T05:14:31;12.38;;;8.38;;
51332;SDS011;37417;48.118;11.734;2023-10-19T05:17:16;9.63;;;8.23;;
51332;SDS011;37417;48.118;11.734;2023-10-19T05:20:06;10.32;;;7.78;;
51332;SDS011;37417;48.118;11.734;2023-10-19T05:22:52;11.40;;;7.90;;
51332;SDS011;37417;48.118;11.734;2023-10-19T05:25:38;9.55;;;7.82;;
51332;SDS011;37417;48.118;11.734;2023-10-19T05:28:23;10.55;;;8.27;;
51332;SDS011;37417;48.118;11.734;2023-10-19T05:31:09;10.23;;;8.13;;
51332;SDS011;37417;48.118;11.734;2023-10-19T05:33:57;10.32;;;7.93;;
51332;SDS011;37417;48.118;11.734;2023-10-19T05:36:42;12.60;;;9.07;;
51332;SDS011;37417;48.118;11.734;2023-10-19T05:39:31;12.13;;;9.25;;
51332;SDS011;37417;48.118;11.734;2023-10-19T05:42:18;12.00;;;8.95;;
51332;SDS011;37417;48.118;11.734;2023-10-19T05:45:04;13.27;;;9.18;;
51332;SDS011;37417;48.118;11.734;2023-10-19T05:47:50;16.48;;;9.27;;
51332;SDS011;37417;48.118;11.734;2023-10-19T05:50:36;10.55;;;8.20;;
51332;SDS011;37417;48.118;11.734;2023-10-19T05:53:22;12.77;;;8.98;;
51332;SDS011;37417;48.118;11.734;2023-10-19T05:56:07;14.95;;;8.90;;
51332;SDS011;37417;48.118;11.734;2023-10-19T05:58:53;12.35;;;8.10;;
51332;SDS011;37417;48.118;11.734;2023-10-19T06:01:39;13.05;;;8.23;;
51332;SDS011;37417;48.118;11.734;2023-10-19T06:04:25;11.35;;;8.20;;
51332;SDS011;37417;48.118;11.734;2023-10-19T06:07:10;11.88;;;9.02;;
51332;SDS011;37417;48.118;11.734;2023-10-19T06:09:56;13.45;;;8.65;;
51332;SDS011;37417;48.118;11.734;2023-10-19T06:12:42;10.55;;;8.07;;
51332;SDS011;37417;48.118;11.734;2023-10-19T06:15:28;13.30;;;9.00;;
51332;SDS011;37417;48.118;11.734;2023-10-19T06:18:16;12.23;;;7.90;;
51332;SDS011;37417;48.118;11.734;2023-10-19T06:21:02;11.70;;;7.30;;
51332;SDS011;37417;48.118;11.734;2023-10-19T06:23:47;10.32;;;7.88;;
51332;SDS011;37417;48.118;11.734;2023-10-19T06:26:33;9.02;;;7.10;;
51332;SDS011;37417;48.118;11.734;2023-10-19T06:29:18;12.15;;;6.40;;
51332;SDS011;37417;48.118;11.734;2023-10-19T06:32:04;15.75;;;6.38;;
51332;SDS011;37417;48.118;11.734;2023-10-19T06:34:49;12.98;;;7.38;;
51332;SDS011;37417;48.118;11.734;2023-10-19T06:37:35;10.48;;;6.60;;
51332;SDS011;37417;48.118;11.734;2023-10-19T06:40:21;7.10;;;5.97;;
51332;SDS011;37417;48.118;11.734;2023-10-19T06:43:07;8.25;;;5.82;;
51332;SDS011;37417;48.118;11.734;2023-10-19T06:45:53;9.73;;;5.90;;
51332;SDS011;37417;48.118;11.734;2023-10-19T06:48:40;10.70;;;5.43;;
51332;SDS011;37417;48.118;11.734;2023-10-19T06:51:26;8.52;;;6.20;;
51332;SDS011;37417;48.118;11.734;2023-10-19T06:54:11;7.82;;;5.60;;
51332;SDS011;37417;48.118;11.734;2023-10-19T06:56:58;10.57;;;5.65;;
51332;SDS011;37417;48.118;11.734;2023-10-19T06:59:44;9.25;;;5.90;;
51332;SDS011;37417;48.118;11.734;2023-10-19T07:02:29;8.68;;;5.80;;
51332;SDS011;37417;48.118;11.734;2023-10-19T07:05:15;6.65;;;5.32;;
51332;SDS011;37417;48.118;11.734;2023-10-19T07:08:04;8.45;;;5.35;;
51332;SDS011;37417;48.118;11.734;2023-10-19T07:10:52;7.85;;;5.57;;
51332;SDS011;37417;48.118;11.734;2023-10-19T07:13:38;6.22;;;4.07;;
51332;SDS011;37417;48.118;11.734;2023-10-19T07:16:25;11.13;;;4.90;;
51332;SDS011;37417;48.118;11.734;2023-10-19T07:19:11;6.80;;;4.22;;
51332;SDS011;37417;48.118;11.734;2023-10-19T07:21:57;4.72;;;3.67;;
51332;SDS011;37417;48.118;11.734;2023-10-19T07:24:43;7.50;;;4.00;;
51332;SDS011;37417;48.118;11.734;2023-10-19T07:27:28;5.85;;;3.80;;
51332;SDS011;37417;48.118;11.734;2023-10-19T07:30:14;5.07;;;3.67;;
51332;SDS011;37417;48.118;11.734;2023-10-19T07:33:00;4.65;;;3.35;;
51332;SDS011;37417;48.118;11.734;2023-10-19T07:35:50;4.75;;;3.63;;
51332;SDS011;37417;48.118;11.734;2023-10-19T07:38:45;5.93;;;3.30;;
51332;SDS011;37417;48.118;11.734;2023-10-19T07:41:32;4.13;;;2.67;;
51332;SDS011;37417;48.118;11.734;2023-10-19T07:44:21;4.63;;;3.13;;
51332;SDS011;37417;48.118;11.734;2023-10-19T07:47:07;4.10;;;2.67;;
51332;SDS011;37417;48.118;11.734;2023-10-19T07:49:54;5.03;;;2.53;;
51332;SDS011;37417;48.118;11.734;2023-10-19T07:52:49;2.97;;;2.17;;
51332;SDS011;37417;48.118;11.734;2023-10-19T07:55:35;5.07;;;2.45;;
51332;SDS011;37417;48.118;11.734;2023-10-19T07:58:20;4.20;;;2.70;;
51332;SDS011;37417;48.118;11.734;2023-10-19T08:01:06;6.00;;;2.78;;
51332;SDS011;37417;48.118;11.734;2023-10-19T08:03:51;5.95;;;2.55;;
51332;SDS011;37417;48.118;11.734;2023-10-19T08:06:37;7.63;;;2.60;;
51332;SDS011;37417;48.118;11.734;2023-10-19T08:09:23;3.92;;;2.28;;
51332;SDS011;37417;48.118;11.734;2023-10-19T08:12:08;4.72;;;2.40;;
51332;SDS011;37417;48.118;11.734;2023-10-19T08:14:54;4.57;;;2.25;;
51332;SDS011;37417;48.118;11.734;2023-10-19T08:17:42;5.15;;;2.28;;
51332;SDS011;37417;48.118;11.734;2023-10-19T08:20:27;5.97;;;2.35;;
51332;SDS011;37417;48.118;11.734;2023-10-19T08:23:15;8.32;;;2.38;;
51332;SDS011;37417;48.118;11.734;2023-10-19T08:26:08;4.63;;;2.45;;
51332;SDS011;37417;48.118;11.734;2023-10-19T08:28:54;5.30;;;1.92;;
51332;SDS011;37417;48.118;11.734;2023-10-19T08:31:42;4.53;;;2.38;;
51332;SDS011;37417;48.118;11.734;2023-10-19T08:34:33;4.95;;;2.13;;
51332;SDS011;37417;48.118;11.734;2023-10-19T08:37:20;5.38;;;2.17;;
51332;SDS011;37417;48.118;11.734;2023-10-19T08:40:06;3.30;;;2.10;;
51332;SDS011;37417;48.118;11.734;2023-10-19T08:42:52;4.82;;;2.05;;
51332;SDS011;37417;48.118;11.734;2023-10-19T08:45:38;7.90;;;2.22;;
51332;SDS011;37417;48.118;11.734;2023-10-19T08:48:24;6.90;;;2.25;;
51332;SDS011;37417;48.118;11.734;2023-10-19T08:51:10;2.40;;;1.88;;
51332;SDS011;37417;48.118;11.734;2023-10-19T08:53:56;2.90;;;2.25;;
51332;SDS011;37417;48.118;11.734;2023-10-19T08:56:42;4.03;;;1.80;;
51332;SDS011;37417;48.118;11.734;2023-10-19T08:59:27;6.78;;;2.20;;
51332;SDS011;37417;48.118;11.734;2023-10-19T09:02:14;3.33;;;1.75;;
51332;SDS011;37417;48.118;11.734;2023-10-19T09:05:05;2.60;;;2.05;;
51332;SDS011;37417;48.118;11.734;2023-10-19T09:07:51;9.48;;;1.70;;
51332;SDS011;37417;48.118;11.734;2023-10-19T09:10:40;3.17;;;1.75;;
51332;SDS011;37417;48.118;11.734;2023-10-19T09:13:26;6.32;;;1.77;;
51332;SDS011;37417;48.118;11.734;2023-10-19T09:16:12;3.35;;;2.25;;
51332;SDS011;37417;48.118;11.734;2023-10-19T09:18:57;4.40;;;2.33;;
51332;SDS011;37417;48.118;11.734;2023-10-19T09:21:43;2.67;;;1.50;;
51332;SDS011;37417;48.118;11.734;2023-10-19T09:24:29;4.88;;;2.10;;
51332;SDS011;37417;48.118;11.734;2023-10-19T09:27:21;5.38;;;1.67;;
51332;SDS011;37417;48.118;11.734;2023-10-19T09:30:07;3.28;;;1.75;;
51332;SDS011;37417;48.118;11.734;2023-10-19T09:32:54;4.03;;;1.88;;
51332;SDS011;37417;48.118;11.734;2023-10-19T09:35:40;1.25;;;1.13;;
51332;SDS011;37417;48.118;11.734;2023-10-19T09:38:31;4.53;;;1.38;;
51332;SDS011;37417;48.118;11.734;2023-10-19T09:41:19;5.07;;;2.20;;
51332;SDS011;37417;48.118;11.734;2023-10-19T09:44:05;3.83;;;2.33;;
51332;SDS011;37417;48.118;11.734;2023-10-19T09:46:54;2.78;;;2.20;;
51332;SDS011;37417;48.118;11.734;2023-10-19T09:49:42;6.00;;;2.38;;
51332;SDS011;37417;48.118;11.734;2023-10-19T09:52:28;5.45;;;1.88;;
51332;SDS011;37417;48.118;11.734;2023-10-19T09:55:18;4.15;;;2.08;;
51332;SDS011;37417;48.118;11.734;2023-10-19T09:58:17;7.78;;;1.98;;
51332;SDS011;37417;48.118;11.734;2023-10-19T10:01:04;2.83;;;1.95;;
51332;SDS011;37417;48.118;11.734;2023-10-19T10:03:57;4.85;;;2.25;;
51332;SDS011;37417;48.118;11.734;2023-10-19T10:09:37;4.43;;;2.08;;
51332;SDS011;37417;48.118;11.734;2023-10-19T10:12:25;3.03;;;2.05;;
51332;SDS011;37417;48.118;11.734;2023-10-19T10:15:12;3.03;;;2.25;;
51332;SDS011;37417;48.118;11.734;2023-10-19T10:18:11;5.90;;;2.20;;
51332;SDS011;37417;48.118;11.734;2023-10-19T10:24:03;3.40;;;2.30;;
51332;SDS011;37417;48.118;11.734;2023-10-19T10:26:58;6.13;;;2.90;;
51332;SDS011;37417;48.118;11.734;2023-10-19T10:29:53;7.90;;;2.00;;
51332;SDS011;37417;48.118;11.734;2023-10-19T10:38:26;4.20;;;2.10;;
51332;SDS011;37417;48.118;11.734;2023-10-19T10:41:25;2.08;;;1.80;;
51332;SDS011;37417;48.118;11.734;2023-10-19T10:44:14;4.35;;;2.20;;
51332;SDS011;37417;48.118;11.734;2023-10-19T10:46:59;2.08;;;1.45;;
51332;SDS011;37417;48.118;11.734;2023-10-19T10:49:48;4.18;;;2.15;;
51332;SDS011;37417;48.118;11.734;2023-10-19T10:52:35;2.58;;;1.85;;
51332;SDS011;37417;48.118;11.734;2023-10-19T10:55:20;3.58;;;2.00;;
51332;SDS011;37417;48.118;11.734;2023-10-19T10:58:06;6.30;;;2.22;;
51332;SDS011;37417;48.118;11.734;2023-10-19T11:00:52;5.30;;;1.83;;
51332;SDS011;37417;48.118;11.734;2023-10-19T11:03:37;6.20;;;1.73;;
51332;SDS011;37417;48.118;11.734;2023-10-19T11:06:23;4.05;;;2.08;;
51332;SDS011;37417;48.118;11.734;2023-10-19T11:09:09;4.53;;;1.83;;
51332;SDS011;37417;48.118;11.734;2023-10-19T11:11:54;5.20;;;1.70;;
51332;SDS011;37417;48.118;11.734;2023-10-19T11:14:55;3.50;;;1.73;;
51332;SDS011;37417;48.118;11.734;2023-10-19T11:17:43;2.85;;;1.45;;
51332;SDS011;37417;48.118;11.734;2023-10-19T11:20:29;4.15;;;1.52;;
51332;SDS011;37417;48.118;11.734;2023-10-19T11:23:15;2.53;;;1.70;;
51332;SDS011;37417;48.118;11.734;2023-10-19T11:26:00;4.95;;;1.70;;
51332;SDS011;37417;48.118;11.734;2023-10-19T11:28:56;2.72;;;1.55;;
51332;SDS011;37417;48.118;11.734;2023-10-19T11:31:56;3.58;;;1.30;;
51332;SDS011;37417;48.118;11.734;2023-10-19T11:34:41;5.30;;;1.40;;
51332;SDS011;37417;48.118;11.734;2023-10-19T11:37:29;3.80;;;1.17;;
51332;SDS011;37417;48.118;11.734;2023-10-19T11:40:15;3.83;;;1.65;;
51332;SDS011;37417;48.118;11.734;2023-10-19T11:43:01;7.07;;;1.92;;
51332;SDS011;37417;48.118;11.734;2023-10-19T11:45:46;4.85;;;1.85;;
51332;SDS011;37417;48.118;11.734;2023-10-19T11:48:32;2.60;;;1.50;;
51332;SDS011;37417;48.118;11.734;2023-10-19T11:51:18;2.95;;;1.42;;
51332;SDS011;37417;48.118;11.734;2023-10-19T11:54:04;2.97;;;1.45;;
51332;SDS011;37417;48.118;11.734;2023-10-19T11:56:51;5.63;;;1.50;;
51332;SDS011;37417;48.118;11.734;2023-10-19T11:59:38;3.08;;;1.60;;
51332;SDS011;37417;48.118;11.734;2023-10-19T12:02:26;2.05;;;1.70;;
51332;SDS011;37417;48.118;11.734;2023-10-19T12:05:12;3.75;;;1.50;;
51332;SDS011;37417;48.118;11.734;2023-10-19T12:07:57;3.72;;;1.52;;
51332;SDS011;37417;48.118;11.734;2023-10-19T12:10:43;2.97;;;1.60;;
51332;SDS011;37417;48.118;11.734;2023-10-19T12:13:28;5.25;;;1.67;;
51332;SDS011;37417;48.118;11.734;2023-10-19T12:16:14;6.47;;;1.63;;
51332;SDS011;37417;48.118;11.734;2023-10-19T12:19:03;2.78;;;1.45;;
51332;SDS011;37417;48.118;11.734;2023-10-19T12:21:48;2.08;;;1.60;;
51332;SDS011;37417;48.118;11.734;2023-10-19T12:24:35;4.38;;;1.48;;
51332;SDS011;37417;48.118;11.734;2023-10-19T12:27:21;5.05;;;1.42;;
51332;SDS011;37417;48.118;11.734;2023-10-19T12:30:07;4.68;;;1.25;;
51332;SDS011;37417;48.118;11.734;2023-10-19T12:33:07;3.00;;;1.20;;
51332;SDS011;37417;48.118;11.734;2023-10-19T12:35:57;1.08;;;0.88;;
51332;SDS011;37417;48.118;11.734;2023-10-19T12:38:43;3.00;;;1.05;;
51332;SDS011;37417;48.118;11.734;2023-10-19T12:41:28;2.42;;;0.90;;
51332;SDS011;37417;48.118;11.734;2023-10-19T12:44:14;3.60;;;1.10;;
51332;SDS011;37417;48.118;11.734;2023-10-19T12:47:00;3.83;;;1.00;;
51332;SDS011;37417;48.118;11.734;2023-10-19T12:49:46;1.90;;;0.70;;
51332;SDS011;37417;48.118;11.734;2023-10-19T12:52:31;2.67;;;0.90;;
51332;SDS011;37417;48.118;11.734;2023-10-19T12:55:21;4.38;;;1.17;;
51332;SDS011;37417;48.118;11.734;2023-10-19T12:58:06;2.10;;;0.90;;
51332;SDS011;37417;48.118;11.734;2023-10-19T13:00:53;1.58;;;0.68;;
51332;SDS011;37417;48.118;11.734;2023-10-19T13:03:39;2.05;;;0.90;;
51332;SDS011;37417;48.118;11.734;2023-10-19T13:06:25;2.08;;;0.80;;
51332;SDS011;37417;48.118;11.734;2023-10-19T13:09:14;1.08;;;0.40;;
51332;SDS011;37417;48.118;11.734;2023-10-19T13:12:01;1.90;;;0.75;;
51332;SDS011;37417;48.118;11.734;2023-10-19T13:14:46;2.92;;;0.80;;
51332;SDS011;37417;48.118;11.734;2023-10-19T13:17:32;4.43;;;0.75;;
51332;SDS011;37417;48.118;11.734;2023-10-19T13:20:18;2.67;;;0.60;;
51332;SDS011;37417;48.118;11.734;2023-10-19T13:23:04;2.83;;;1.17;;
51332;SDS011;37417;48.118;11.734;2023-10-19T13:25:52;1.10;;;0.73;;
51332;SDS011;37417;48.118;11.734;2023-10-19T13:28:46;0.82;;;0.55;;
51332;SDS011;37417;48.118;11.734;2023-10-19T13:31:32;0.82;;;0.65;;
51332;SDS011;37417;48.118;11.734;2023-10-19T13:34:18;1.10;;;0.93;;
51332;SDS011;37417;48.118;11.734;2023-10-19T13:37:03;6.32;;;1.00;;
51332;SDS011;37417;48.118;11.734;2023-10-19T13:39:49;3.95;;;0.80;;
51332;SDS011;37417;48.118;11.734;2023-10-19T13:42:34;1.80;;;0.88;;
51332;SDS011;37417;48.118;11.734;2023-10-19T13:45:20;1.77;;;1.08;;
51332;SDS011;37417;48.118;11.734;2023-10-19T13:48:06;1.08;;;0.73;;
51332;SDS011;37417;48.118;11.734;2023-10-19T13:50:52;2.08;;;0.88;;
51332;SDS011;37417;48.118;11.734;2023-10-19T13:53:41;5.35;;;0.93;;
51332;SDS011;37417;48.118;11.734;2023-10-19T13:56:26;2.47;;;1.27;;
51332;SDS011;37417;48.118;11.734;2023-10-19T13:59:12;3.92;;;0.90;;
51332;SDS011;37417;48.118;11.734;2023-10-19T14:01:59;1.33;;;1.08;;
51332;SDS011;37417;48.118;11.734;2023-10-19T14:04:45;5.65;;;0.93;;
51332;SDS011;37417;48.118;11.734;2023-10-19T14:07:31;3.80;;;1.60;;
51332;SDS011;37417;48.118;11.734;2023-10-19T14:10:18;4.93;;;1.50;;
51332;SDS011;37417;48.118;11.734;2023-10-19T14:13:05;4.72;;;1.50;;
51332;SDS011;37417;48.118;11.734;2023-10-19T14:15:50;2.95;;;1.65;;
51332;SDS011;37417;48.118;11.734;2023-10-19T14:18:36;3.58;;;1.35;;
51332;SDS011;37417;48.118;11.734;2023-10-19T14:21:22;4.70;;;1.40;;
51332;SDS011;37417;48.118;11.734;2023-10-19T14:24:09;3.55;;;1.30;;
51332;SDS011;37417;48.118;11.734;2023-10-19T14:26:54;2.10;;;1.48;;
51332;SDS011;37417;48.118;11.734;2023-10-19T14:29:40;7.00;;;2.40;;
51332;SDS011;37417;48.118;11.734;2023-10-19T14:32:25;8.88;;;4.20;;
51332;SDS011;37417;48.118;11.734;2023-10-19T14:35:12;8.75;;;3.83;;
51332;SDS011;37417;48.118;11.734;2023-10-19T14:38:00;11.20;;;3.28;;
51332;SDS011;37417;48.118;11.734;2023-10-19T14:40:46;9.55;;;3.17;;
51332;SDS011;37417;48.118;11.734;2023-10-19T14:43:33;5.07;;;3.85;;
51332;SDS011;37417;48.118;11.734;2023-10-19T14:46:19;6.88;;;4.70;;
51332;SDS011;37417;48.118;11.734;2023-10-19T14:49:04;6.65;;;5.50;;
51332;SDS011;37417;48.118;11.734;2023-10-19T14:51:50;9.75;;;5.45;;
51332;SDS011;37417;48.118;11.734;2023-10-19T14:54:35;6.85;;;5.43;;
51332;SDS011;37417;48.118;11.734;2023-10-19T14:57:21;11.50;;;6.45;;
51332;SDS011;37417;48.118;11.734;2023-10-19T15:00:08;7.53;;;5.93;;
51332;SDS011;37417;48.118;11.734;2023-10-19T15:03:01;12.43;;;7.10;;
51332;SDS011;37417;48.118;11.734;2023-10-19T15:05:49;9.23;;;6.65;;
51332;SDS011;37417;48.118;11.734;2023-10-19T15:08:36;8.82;;;7.07;;
51332;SDS011;37417;48.118;11.734;2023-10-19T15:11:23;9.38;;;7.07;;
51332;SDS011;37417;48.118;11.734;2023-10-19T15:14:10;12.82;;;7.88;;
51332;SDS011;37417;48.118;11.734;2023-10-19T15:16:57;15.65;;;8.57;;
51332;SDS011;37417;48.118;11.734;2023-10-19T15:19:42;10.02;;;8.02;;
51332;SDS011;37417;48.118;11.734;2023-10-19T15:22:28;11.88;;;8.50;;
51332;SDS011;37417;48.118;11.734;2023-10-19T15:25:14;10.40;;;8.15;;
51332;SDS011;37417;48.118;11.734;2023-10-19T15:28:00;14.27;;;8.82;;
51332;SDS011;37417;48.118;11.734;2023-10-19T15:30:45;11.63;;;8.32;;
51332;SDS011;37417;48.118;11.734;2023-10-19T15:33:31;13.52;;;9.45;;
51332;SDS011;37417;48.118;11.734;2023-10-19T15:36:17;13.77;;;9.75;;
51332;SDS011;37417;48.118;11.734;2023-10-19T15:39:02;10.73;;;8.82;;
51332;SDS011;37417;48.118;11.734;2023-10-19T15:41:48;11.20;;;8.95;;
51332;SDS011;37417;48.118;11.734;2023-10-19T15:44:34;12.20;;;9.05;;
51332;SDS011;37417;48.118;11.734;2023-10-19T15:47:20;18.45;;;9.02;;
51332;SDS011;37417;48.118;11.734;2023-10-19T15:50:07;10.25;;;8.70;;
51332;SDS011;37417;48.118;11.734;2023-10-19T15:52:57;12.10;;;9.32;;
51332;SDS011;37417;48.118;11.734;2023-10-19T15:55:43;11.75;;;9.02;;
51332;SDS011;37417;48.118;11.734;2023-10-19T15:58:28;12.00;;;9.70;;
51332;SDS011;37417;48.118;11.734;2023-10-19T16:01:14;16.05;;;10.13;;
51332;SDS011;37417;48.118;11.734;2023-10-19T16:04:01;14.98;;;10.00;;
51332;SDS011;37417;48.118;11.734;2023-10-19T16:06:46;12.68;;;10.02;;
51332;SDS011;37417;48.118;11.734;2023-10-19T16:09:32;15.52;;;11.75;;
51332;SDS011;37417;48.118;11.734;2023-10-19T16:12:17;15.18;;;10.73;;
51332;SDS011;37417;48.118;11.734;2023-10-19T16:15:03;12.23;;;10.25;;
51332;SDS011;37417;48.118;11.734;2023-10-19T16:17:49;14.25;;;11.13;;
51332;SDS011;37417;48.118;11.734;2023-10-19T16:20:36;14.80;;;10.93;;
51332;SDS011;37417;48.118;11.734;2023-10-19T16:23:24;16.48;;;11.40;;
51332;SDS011;37417;48.118;11.734;2023-10-19T16:26:11;16.52;;;12.13;;
51332;SDS011;37417;48.118;11.734;2023-10-19T16:28:56;16.67;;;12.55;;
51332;SDS011;37417;48.118;11.734;2023-10-19T16:31:42;13.88;;;11.75;;